sensor_id;sensor_type;location;lat;lon;timestamp;temperature;humidity
17607;DHT22;8922;52.240;20.980;2022-09-29T00:00:13;10.30;99.90
17607;DHT22;8922;52.240;20.980;2022-09-29T00:02:40;10.40;99.90
17607;DHT22;8922;52.240;20.980;2022-09-29T00:05:07;10.40;99.90
17607;DHT22;8922;52.240;20.980;2022-09-29T00:07:34;10.30;99.90
17607;DHT22;8922;52.240;20.980;2022-09-29T00:10:03;10.30;99.90
17607;DHT22;8922;52.240;20.980;2022-09-29T00:12:30;10.30;99.90
17607;DHT22;8922;52.240;20.980;2022-09-29T00:14:57;10.30;99.90
17607;DHT22;8922;52.240;20.980;2022-09-29T00:17:24;10.30;99.90
17607;DHT22;8922;52.240;20.980;2022-09-29T00:19:51;10.20;99.90
17607;DHT22;8922;52.240;20.980;2022-09-29T00:22:17;10.20;99.90
17607;DHT22;8922;52.240;20.980;2022-09-29T00:24:46;10.10;99.90
17607;DHT22;8922;52.240;20.980;2022-09-29T00:27:15;10.10;99.90
17607;DHT22;8922;52.240;20.980;2022-09-29T00:29:42;10.00;99.90
17607;DHT22;8922;52.240;20.980;2022-09-29T00:32:09;10.00;99.90
17607;DHT22;8922;52.240;20.980;2022-09-29T00:34:36;10.00;99.90
17607;DHT22;8922;52.240;20.980;2022-09-29T00:37:03;10.00;99.90
17607;DHT22;8922;52.240;20.980;2022-09-29T00:39:30;10.00;99.90
17607;DHT22;8922;52.240;20.980;2022-09-29T00:41:57;10.00;99.90
17607;DHT22;8922;52.240;20.980;2022-09-29T00:44:58;10.00;99.90
17607;DHT22;8922;52.240;20.980;2022-09-29T00:47:26;9.90;99.90
17607;DHT22;8922;52.240;20.980;2022-09-29T00:49:56;9.90;99.90
17607;DHT22;8922;52.240;20.980;2022-09-29T00:52:28;9.90;99.90
17607;DHT22;8922;52.240;20.980;2022-09-29T00:55:01;9.90;99.90
17607;DHT22;8922;52.240;20.980;2022-09-29T00:57:32;9.90;99.90
17607;DHT22;8922;52.240;20.980;2022-09-29T01:00:06;9.90;99.90
17607;DHT22;8922;52.240;20.980;2022-09-29T01:02:41;9.80;99.90
17607;DHT22;8922;52.240;20.980;2022-09-29T01:05:12;9.80;99.90
17607;DHT22;8922;52.240;20.980;2022-09-29T01:07:41;9.80;99.90
17607;DHT22;8922;52.240;20.980;2022-09-29T01:10:11;9.80;99.90
17607;DHT22;8922;52.240;20.980;2022-09-29T01:12:39;9.90;99.90
17607;DHT22;8922;52.240;20.980;2022-09-29T01:15:08;9.80;99.90
17607;DHT22;8922;52.240;20.980;2022-09-29T01:17:35;9.90;99.90
17607;DHT22;8922;52.240;20.980;2022-09-29T01:20:07;9.90;99.90
17607;DHT22;8922;52.240;20.980;2022-09-29T01:23:06;9.90;99.90
17607;DHT22;8922;52.240;20.980;2022-09-29T01:26:15;9.80;99.90
17607;DHT22;8922;52.240;20.980;2022-09-29T01:29:02;9.80;99.90
17607;DHT22;8922;52.240;20.980;2022-09-29T01:31:42;9.80;99.90
17607;DHT22;8922;52.240;20.980;2022-09-29T01:34:17;9.70;99.90
17607;DHT22;8922;52.240;20.980;2022-09-29T01:36:52;9.80;99.90
17607;DHT22;8922;52.240;20.980;2022-09-29T01:39:26;9.70;99.90
17607;DHT22;8922;52.240;20.980;2022-09-29T01:41:58;9.70;99.90
17607;DHT22;8922;52.240;20.980;2022-09-29T01:44:30;9.70;99.90
17607;DHT22;8922;52.240;20.980;2022-09-29T01:47:04;9.60;99.90
17607;DHT22;8922;52.240;20.980;2022-09-29T01:49:36;9.60;99.90
17607;DHT22;8922;52.240;20.980;2022-09-29T01:52:08;9.60;99.90
17607;DHT22;8922;52.240;20.980;2022-09-29T01:54:42;9.50;99.90
17607;DHT22;8922;52.240;20.980;2022-09-29T01:57:13;9.60;99.90
17607;DHT22;8922;52.240;20.980;2022-09-29T01:59:44;9.60;99.90
17607;DHT22;8922;52.240;20.980;2022-09-29T02:02:18;9.50;99.90
17607;DHT22;8922;52.240;20.980;2022-09-29T02:04:50;9.60;99.90
17607;DHT22;8922;52.240;20.980;2022-09-29T02:07:22;9.60;99.90
17607;DHT22;8922;52.240;20.980;2022-09-29T02:09:56;9.60;99.90
17607;DHT22;8922;52.240;20.980;2022-09-29T02:12:26;9.60;99.90
17607;DHT22;8922;52.240;20.980;2022-09-29T02:14:55;9.60;99.90
17607;DHT22;8922;52.240;20.980;2022-09-29T02:17:29;9.60;99.90
17607;DHT22;8922;52.240;20.980;2022-09-29T02:19:57;9.60;99.90
17607;DHT22;8922;52.240;20.980;2022-09-29T02:22:24;9.50;99.90
17607;DHT22;8922;52.240;20.980;2022-09-29T02:24:52;9.50;99.90
17607;DHT22;8922;52.240;20.980;2022-09-29T02:27:20;9.50;99.90
17607;DHT22;8922;52.240;20.980;2022-09-29T02:29:48;9.50;99.90
17607;DHT22;8922;52.240;20.980;2022-09-29T02:32:15;9.50;99.90
17607;DHT22;8922;52.240;20.980;2022-09-29T02:34:46;9.50;99.90
17607;DHT22;8922;52.240;20.980;2022-09-29T02:40:27;9.50;99.90
17607;DHT22;8922;52.240;20.980;2022-09-29T02:43:06;9.50;99.90
17607;DHT22;8922;52.240;20.980;2022-09-29T02:45:43;9.50;99.90
17607;DHT22;8922;52.240;20.980;2022-09-29T02:48:25;9.40;99.90
17607;DHT22;8922;52.240;20.980;2022-09-29T02:51:09;9.40;99.90
17607;DHT22;8922;52.240;20.980;2022-09-29T02:53:51;9.40;99.90
17607;DHT22;8922;52.240;20.980;2022-09-29T02:56:26;9.40;99.90
17607;DHT22;8922;52.240;20.980;2022-09-29T02:58:59;9.40;99.90
17607;DHT22;8922;52.240;20.980;2022-09-29T03:01:29;9.40;99.90
17607;DHT22;8922;52.240;20.980;2022-09-29T03:03:56;9.40;99.90
17607;DHT22;8922;52.240;20.980;2022-09-29T03:06:25;9.40;99.90
17607;DHT22;8922;52.240;20.980;2022-09-29T03:08:52;9.40;99.90
17607;DHT22;8922;52.240;20.980;2022-09-29T03:11:18;9.40;99.90
17607;DHT22;8922;52.240;20.980;2022-09-29T03:13:45;9.40;99.90
17607;DHT22;8922;52.240;20.980;2022-09-29T03:16:12;9.30;99.90
17607;DHT22;8922;52.240;20.980;2022-09-29T03:18:39;9.30;99.90
17607;DHT22;8922;52.240;20.980;2022-09-29T03:21:05;9.30;99.90
17607;DHT22;8922;52.240;20.980;2022-09-29T03:23:33;9.30;99.90
17607;DHT22;8922;52.240;20.980;2022-09-29T03:26:00;9.30;99.90
17607;DHT22;8922;52.240;20.980;2022-09-29T03:28:27;9.30;99.90
17607;DHT22;8922;52.240;20.980;2022-09-29T03:30:54;9.30;99.90
17607;DHT22;8922;52.240;20.980;2022-09-29T03:33:21;9.20;99.90
17607;DHT22;8922;52.240;20.980;2022-09-29T03:35:47;9.20;99.90
17607;DHT22;8922;52.240;20.980;2022-09-29T03:38:14;9.20;99.90
17607;DHT22;8922;52.240;20.980;2022-09-29T03:40:42;9.10;99.90
17607;DHT22;8922;52.240;20.980;2022-09-29T03:43:09;9.10;99.90
17607;DHT22;8922;52.240;20.980;2022-09-29T03:45:35;9.10;99.90
17607;DHT22;8922;52.240;20.980;2022-09-29T03:48:02;9.00;99.90
17607;DHT22;8922;52.240;20.980;2022-09-29T03:50:29;9.00;99.90
17607;DHT22;8922;52.240;20.980;2022-09-29T03:52:56;9.00;99.90
17607;DHT22;8922;52.240;20.980;2022-09-29T03:55:23;9.00;99.90
17607;DHT22;8922;52.240;20.980;2022-09-29T03:57:51;9.10;99.90
17607;DHT22;8922;52.240;20.980;2022-09-29T04:00:18;9.00;99.90
17607;DHT22;8922;52.240;20.980;2022-09-29T04:02:44;9.00;99.90
17607;DHT22;8922;52.240;20.980;2022-09-29T04:05:11;9.00;99.90
17607;DHT22;8922;52.240;20.980;2022-09-29T04:07:38;9.10;99.90
17607;DHT22;8922;52.240;20.980;2022-09-29T04:10:05;9.00;99.90
17607;DHT22;8922;52.240;20.980;2022-09-29T04:12:32;9.00;99.90
17607;DHT22;8922;52.240;20.980;2022-09-29T04:15:00;9.00;99.90
17607;DHT22;8922;52.240;20.980;2022-09-29T04:17:27;8.90;99.90
17607;DHT22;8922;52.240;20.980;2022-09-29T04:19:54;8.90;99.90
17607;DHT22;8922;52.240;20.980;2022-09-29T04:22:20;9.00;99.90
17607;DHT22;8922;52.240;20.980;2022-09-29T04:24:47;9.00;99.90
17607;DHT22;8922;52.240;20.980;2022-09-29T04:27:14;9.00;99.90
17607;DHT22;8922;52.240;20.980;2022-09-29T04:29:41;9.00;99.90
17607;DHT22;8922;52.240;20.980;2022-09-29T04:32:09;9.00;99.90
17607;DHT22;8922;52.240;20.980;2022-09-29T04:34:36;9.10;99.90
17607;DHT22;8922;52.240;20.980;2022-09-29T04:37:03;9.00;99.90
17607;DHT22;8922;52.240;20.980;2022-09-29T04:39:30;9.00;99.90
17607;DHT22;8922;52.240;20.980;2022-09-29T04:41:57;9.10;99.90
17607;DHT22;8922;52.240;20.980;2022-09-29T04:44:23;9.20;99.90
17607;DHT22;8922;52.240;20.980;2022-09-29T04:46:50;9.20;99.90
17607;DHT22;8922;52.240;20.980;2022-09-29T04:49:19;9.20;99.90
17607;DHT22;8922;52.240;20.980;2022-09-29T04:51:46;9.20;99.90
17607;DHT22;8922;52.240;20.980;2022-09-29T04:54:13;9.20;99.90
17607;DHT22;8922;52.240;20.980;2022-09-29T04:56:40;9.30;99.90
17607;DHT22;8922;52.240;20.980;2022-09-29T04:59:08;9.20;99.90
17607;DHT22;8922;52.240;20.980;2022-09-29T05:01:35;9.30;99.90
17607;DHT22;8922;52.240;20.980;2022-09-29T05:04:02;9.30;99.90
17607;DHT22;8922;52.240;20.980;2022-09-29T05:06:30;9.30;99.90
17607;DHT22;8922;52.240;20.980;2022-09-29T05:08:57;9.30;99.90
17607;DHT22;8922;52.240;20.980;2022-09-29T05:11:24;9.30;99.90
17607;DHT22;8922;52.240;20.980;2022-09-29T05:13:50;9.30;99.90
17607;DHT22;8922;52.240;20.980;2022-09-29T05:16:17;9.40;99.90
17607;DHT22;8922;52.240;20.980;2022-09-29T05:18:44;9.40;99.90
17607;DHT22;8922;52.240;20.980;2022-09-29T05:21:10;9.40;99.90
17607;DHT22;8922;52.240;20.980;2022-09-29T05:23:38;9.50;99.90
17607;DHT22;8922;52.240;20.980;2022-09-29T05:26:07;9.50;99.90
17607;DHT22;8922;52.240;20.980;2022-09-29T05:28:34;9.50;99.90
17607;DHT22;8922;52.240;20.980;2022-09-29T05:31:02;9.40;99.90
17607;DHT22;8922;52.240;20.980;2022-09-29T05:33:29;9.60;99.90
17607;DHT22;8922;52.240;20.980;2022-09-29T05:35:56;9.60;99.90
17607;DHT22;8922;52.240;20.980;2022-09-29T05:38:23;9.60;99.90
17607;DHT22;8922;52.240;20.980;2022-09-29T05:40:52;9.60;99.90
17607;DHT22;8922;52.240;20.980;2022-09-29T05:43:19;9.50;99.90
17607;DHT22;8922;52.240;20.980;2022-09-29T05:45:46;9.60;99.90
17607;DHT22;8922;52.240;20.980;2022-09-29T05:48:13;9.60;99.90
17607;DHT22;8922;52.240;20.980;2022-09-29T05:50:39;9.60;99.90
17607;DHT22;8922;52.240;20.980;2022-09-29T05:53:08;9.60;99.90
17607;DHT22;8922;52.240;20.980;2022-09-29T05:55:35;9.60;99.90
17607;DHT22;8922;52.240;20.980;2022-09-29T05:58:03;9.60;99.90
17607;DHT22;8922;52.240;20.980;2022-09-29T06:00:31;9.60;99.90
17607;DHT22;8922;52.240;20.980;2022-09-29T06:02:58;9.60;99.90
17607;DHT22;8922;52.240;20.980;2022-09-29T06:05:25;9.60;99.90
17607;DHT22;8922;52.240;20.980;2022-09-29T06:07:53;9.60;99.90
17607;DHT22;8922;52.240;20.980;2022-09-29T06:10:20;9.60;99.90
17607;DHT22;8922;52.240;20.980;2022-09-29T06:12:47;9.60;99.90
17607;DHT22;8922;52.240;20.980;2022-09-29T06:15:15;9.60;99.90
17607;DHT22;8922;52.240;20.980;2022-09-29T06:17:42;9.50;99.90
17607;DHT22;8922;52.240;20.980;2022-09-29T06:20:09;9.60;99.90
17607;DHT22;8922;52.240;20.980;2022-09-29T06:22:36;9.60;99.90
17607;DHT22;8922;52.240;20.980;2022-09-29T06:25:04;9.50;99.90
17607;DHT22;8922;52.240;20.980;2022-09-29T06:27:31;9.50;99.90
17607;DHT22;8922;52.240;20.980;2022-09-29T06:29:58;9.50;99.90
17607;DHT22;8922;52.240;20.980;2022-09-29T06:32:27;9.50;99.90
17607;DHT22;8922;52.240;20.980;2022-09-29T06:34:53;9.50;99.90
17607;DHT22;8922;52.240;20.980;2022-09-29T06:37:39;9.50;99.90
17607;DHT22;8922;52.240;20.980;2022-09-29T06:40:11;9.60;99.90
17607;DHT22;8922;52.240;20.980;2022-09-29T06:42:38;9.60;99.90
17607;DHT22;8922;52.240;20.980;2022-09-29T06:45:06;9.60;99.90
17607;DHT22;8922;52.240;20.980;2022-09-29T06:47:34;9.60;99.90
17607;DHT22;8922;52.240;20.980;2022-09-29T06:50:01;9.70;99.90
17607;DHT22;8922;52.240;20.980;2022-09-29T06:52:28;9.70;99.90
17607;DHT22;8922;52.240;20.980;2022-09-29T06:54:55;9.70;99.90
17607;DHT22;8922;52.240;20.980;2022-09-29T06:57:21;9.70;99.90
17607;DHT22;8922;52.240;20.980;2022-09-29T06:59:49;9.80;99.90
17607;DHT22;8922;52.240;20.980;2022-09-29T07:02:16;9.80;99.90
17607;DHT22;8922;52.240;20.980;2022-09-29T07:04:44;9.80;99.90
17607;DHT22;8922;52.240;20.980;2022-09-29T07:07:13;9.80;99.90
17607;DHT22;8922;52.240;20.980;2022-09-29T07:09:41;9.80;99.90
17607;DHT22;8922;52.240;20.980;2022-09-29T07:12:08;9.80;99.90
17607;DHT22;8922;52.240;20.980;2022-09-29T07:14:36;9.80;99.90
17607;DHT22;8922;52.240;20.980;2022-09-29T07:17:02;9.90;99.90
17607;DHT22;8922;52.240;20.980;2022-09-29T07:19:30;9.90;99.90
17607;DHT22;8922;52.240;20.980;2022-09-29T07:21:58;9.90;99.90
17607;DHT22;8922;52.240;20.980;2022-09-29T07:24:25;9.90;99.90
17607;DHT22;8922;52.240;20.980;2022-09-29T07:26:52;9.90;99.90
17607;DHT22;8922;52.240;20.980;2022-09-29T07:29:18;9.90;99.90
17607;DHT22;8922;52.240;20.980;2022-09-29T07:31:45;9.90;99.90
17607;DHT22;8922;52.240;20.980;2022-09-29T07:34:13;10.00;99.90
17607;DHT22;8922;52.240;20.980;2022-09-29T07:36:40;10.00;99.90
17607;DHT22;8922;52.240;20.980;2022-09-29T07:39:08;10.00;99.90
17607;DHT22;8922;52.240;20.980;2022-09-29T07:41:35;10.00;99.90
17607;DHT22;8922;52.240;20.980;2022-09-29T07:44:02;10.00;99.90
17607;DHT22;8922;52.240;20.980;2022-09-29T07:46:28;10.10;99.90
17607;DHT22;8922;52.240;20.980;2022-09-29T07:48:57;10.00;99.90
17607;DHT22;8922;52.240;20.980;2022-09-29T07:51:23;10.10;99.90
17607;DHT22;8922;52.240;20.980;2022-09-29T07:53:50;10.00;99.90
17607;DHT22;8922;52.240;20.980;2022-09-29T07:56:20;10.10;99.90
17607;DHT22;8922;52.240;20.980;2022-09-29T07:58:48;10.10;99.90
17607;DHT22;8922;52.240;20.980;2022-09-29T08:01:16;10.30;99.90
17607;DHT22;8922;52.240;20.980;2022-09-29T08:03:48;10.30;99.90
17607;DHT22;8922;52.240;20.980;2022-09-29T08:06:15;10.40;99.90
17607;DHT22;8922;52.240;20.980;2022-09-29T08:08:42;10.50;99.90
17607;DHT22;8922;52.240;20.980;2022-09-29T08:11:10;10.50;99.90
17607;DHT22;8922;52.240;20.980;2022-09-29T08:13:39;10.60;99.90
17607;DHT22;8922;52.240;20.980;2022-09-29T08:16:08;10.70;99.90
17607;DHT22;8922;52.240;20.980;2022-09-29T08:18:36;10.90;99.90
17607;DHT22;8922;52.240;20.980;2022-09-29T08:21:03;11.00;99.90
17607;DHT22;8922;52.240;20.980;2022-09-29T08:23:34;11.10;99.90
17607;DHT22;8922;52.240;20.980;2022-09-29T08:26:01;11.10;99.90
17607;DHT22;8922;52.240;20.980;2022-09-29T08:28:29;11.20;99.90
17607;DHT22;8922;52.240;20.980;2022-09-29T08:31:00;11.30;99.90
17607;DHT22;8922;52.240;20.980;2022-09-29T08:33:27;11.50;99.90
17607;DHT22;8922;52.240;20.980;2022-09-29T08:35:55;11.70;99.90
17607;DHT22;8922;52.240;20.980;2022-09-29T08:38:23;12.00;99.90
17607;DHT22;8922;52.240;20.980;2022-09-29T08:40:50;12.30;99.90
17607;DHT22;8922;52.240;20.980;2022-09-29T08:43:19;12.60;99.90
17607;DHT22;8922;52.240;20.980;2022-09-29T08:45:57;12.80;99.90
17607;DHT22;8922;52.240;20.980;2022-09-29T08:48:28;12.90;99.90
17607;DHT22;8922;52.240;20.980;2022-09-29T08:50:59;13.10;99.90
17607;DHT22;8922;52.240;20.980;2022-09-29T08:53:30;13.40;99.90
17607;DHT22;8922;52.240;20.980;2022-09-29T08:56:01;13.90;99.90
17607;DHT22;8922;52.240;20.980;2022-09-29T08:58:28;14.50;99.90
17607;DHT22;8922;52.240;20.980;2022-09-29T09:01:06;15.00;99.90
17607;DHT22;8922;52.240;20.980;2022-09-29T09:03:55;15.50;99.90
17607;DHT22;8922;52.240;20.980;2022-09-29T09:06:33;15.50;99.90
17607;DHT22;8922;52.240;20.980;2022-09-29T09:09:12;15.20;99.90
17607;DHT22;8922;52.240;20.980;2022-09-29T09:12:15;14.80;99.90
17607;DHT22;8922;52.240;20.980;2022-09-29T09:14:56;14.50;99.90
17607;DHT22;8922;52.240;20.980;2022-09-29T09:17:38;14.20;99.90
17607;DHT22;8922;52.240;20.980;2022-09-29T09:20:22;14.00;99.90
17607;DHT22;8922;52.240;20.980;2022-09-29T09:22:55;13.80;99.90
17607;DHT22;8922;52.240;20.980;2022-09-29T09:25:31;13.50;99.90
17607;DHT22;8922;52.240;20.980;2022-09-29T09:28:07;13.60;99.90
17607;DHT22;8922;52.240;20.980;2022-09-29T09:30:41;13.70;99.90
17607;DHT22;8922;52.240;20.980;2022-09-29T09:33:18;13.90;99.90
17607;DHT22;8922;52.240;20.980;2022-09-29T09:35:52;13.90;99.90
17607;DHT22;8922;52.240;20.980;2022-09-29T09:38:24;13.80;99.90
17607;DHT22;8922;52.240;20.980;2022-09-29T09:40:55;13.80;99.90
17607;DHT22;8922;52.240;20.980;2022-09-29T09:43:28;13.70;99.90
17607;DHT22;8922;52.240;20.980;2022-09-29T09:46:02;13.60;99.90
17607;DHT22;8922;52.240;20.980;2022-09-29T09:48:34;13.50;99.90
17607;DHT22;8922;52.240;20.980;2022-09-29T09:51:26;13.40;99.90
17607;DHT22;8922;52.240;20.980;2022-09-29T09:53:59;13.30;99.90
17607;DHT22;8922;52.240;20.980;2022-09-29T09:56:41;13.20;99.90
17607;DHT22;8922;52.240;20.980;2022-09-29T09:59:18;13.10;99.90
17607;DHT22;8922;52.240;20.980;2022-09-29T10:01:48;12.90;99.90
17607;DHT22;8922;52.240;20.980;2022-09-29T10:04:16;12.90;99.90
17607;DHT22;8922;52.240;20.980;2022-09-29T10:06:42;12.80;99.90
17607;DHT22;8922;52.240;20.980;2022-09-29T10:09:13;12.70;99.90
17607;DHT22;8922;52.240;20.980;2022-09-29T10:11:41;12.60;99.90
17607;DHT22;8922;52.240;20.980;2022-09-29T10:14:12;12.40;99.90
17607;DHT22;8922;52.240;20.980;2022-09-29T10:16:43;12.40;99.90
17607;DHT22;8922;52.240;20.980;2022-09-29T10:19:11;12.40;99.90
17607;DHT22;8922;52.240;20.980;2022-09-29T10:21:40;12.30;99.90
17607;DHT22;8922;52.240;20.980;2022-09-29T10:24:21;12.30;99.90
17607;DHT22;8922;52.240;20.980;2022-09-29T10:26:51;12.30;99.90
17607;DHT22;8922;52.240;20.980;2022-09-29T10:29:22;12.30;99.90
17607;DHT22;8922;52.240;20.980;2022-09-29T10:31:58;12.30;99.90
17607;DHT22;8922;52.240;20.980;2022-09-29T10:34:28;12.20;99.90
17607;DHT22;8922;52.240;20.980;2022-09-29T10:36:58;12.30;99.90
17607;DHT22;8922;52.240;20.980;2022-09-29T10:39:31;12.30;99.90
17607;DHT22;8922;52.240;20.980;2022-09-29T10:41:58;12.30;99.90
17607;DHT22;8922;52.240;20.980;2022-09-29T10:44:30;12.20;99.90
17607;DHT22;8922;52.240;20.980;2022-09-29T10:46:57;12.30;99.90
17607;DHT22;8922;52.240;20.980;2022-09-29T10:49:26;12.20;99.90
17607;DHT22;8922;52.240;20.980;2022-09-29T10:52:01;12.20;99.90
17607;DHT22;8922;52.240;20.980;2022-09-29T10:54:31;12.10;99.90
17607;DHT22;8922;52.240;20.980;2022-09-29T10:56:58;12.10;99.90
17607;DHT22;8922;52.240;20.980;2022-09-29T10:59:26;12.00;99.90
17607;DHT22;8922;52.240;20.980;2022-09-29T11:01:54;12.00;99.90
17607;DHT22;8922;52.240;20.980;2022-09-29T11:04:25;11.90;99.90
17607;DHT22;8922;52.240;20.980;2022-09-29T11:06:53;12.00;99.90
17607;DHT22;8922;52.240;20.980;2022-09-29T11:09:36;12.10;99.90
17607;DHT22;8922;52.240;20.980;2022-09-29T11:12:04;12.20;99.90
17607;DHT22;8922;52.240;20.980;2022-09-29T11:14:39;12.30;99.90
17607;DHT22;8922;52.240;20.980;2022-09-29T11:17:20;12.40;99.90
17607;DHT22;8922;52.240;20.980;2022-09-29T11:19:48;12.40;99.90
17607;DHT22;8922;52.240;20.980;2022-09-29T11:25:47;12.60;99.90
17607;DHT22;8922;52.240;20.980;2022-09-29T11:28:36;12.70;99.90
17607;DHT22;8922;52.240;20.980;2022-09-29T11:31:16;12.90;99.90
17607;DHT22;8922;52.240;20.980;2022-09-29T11:33:56;13.00;99.90
17607;DHT22;8922;52.240;20.980;2022-09-29T11:36:32;13.10;99.90
17607;DHT22;8922;52.240;20.980;2022-09-29T11:39:11;13.20;99.90
17607;DHT22;8922;52.240;20.980;2022-09-29T11:41:49;13.20;99.90
17607;DHT22;8922;52.240;20.980;2022-09-29T11:44:29;13.30;99.90
17607;DHT22;8922;52.240;20.980;2022-09-29T11:47:03;13.30;99.90
17607;DHT22;8922;52.240;20.980;2022-09-29T11:49:57;13.40;99.90
17607;DHT22;8922;52.240;20.980;2022-09-29T11:52:42;13.40;99.90
17607;DHT22;8922;52.240;20.980;2022-09-29T11:55:29;13.50;99.90
17607;DHT22;8922;52.240;20.980;2022-09-29T11:58:19;13.60;99.90
17607;DHT22;8922;52.240;20.980;2022-09-29T12:01:06;13.60;99.90
17607;DHT22;8922;52.240;20.980;2022-09-29T12:03:43;13.60;99.90
17607;DHT22;8922;52.240;20.980;2022-09-29T12:06:31;13.70;99.90
17607;DHT22;8922;52.240;20.980;2022-09-29T12:09:16;13.80;99.90
17607;DHT22;8922;52.240;20.980;2022-09-29T12:11:52;13.90;99.90
17607;DHT22;8922;52.240;20.980;2022-09-29T12:14:27;13.90;99.90
17607;DHT22;8922;52.240;20.980;2022-09-29T12:17:02;14.10;99.90
17607;DHT22;8922;52.240;20.980;2022-09-29T12:19:36;14.20;99.90
17607;DHT22;8922;52.240;20.980;2022-09-29T12:22:08;14.20;99.90
17607;DHT22;8922;52.240;20.980;2022-09-29T12:24:37;14.00;99.90
17607;DHT22;8922;52.240;20.980;2022-09-29T12:27:11;13.90;99.90
17607;DHT22;8922;52.240;20.980;2022-09-29T12:29:42;13.90;99.90
17607;DHT22;8922;52.240;20.980;2022-09-29T12:32:16;15.00;99.90
17607;DHT22;8922;52.240;20.980;2022-09-29T12:34:49;16.30;99.90
17607;DHT22;8922;52.240;20.980;2022-09-29T12:37:21;17.80;99.90
17607;DHT22;8922;52.240;20.980;2022-09-29T12:39:57;19.40;99.90
17607;DHT22;8922;52.240;20.980;2022-09-29T12:42:41;21.10;99.90
17607;DHT22;8922;52.240;20.980;2022-09-29T12:45:22;23.00;94.90
17607;DHT22;8922;52.240;20.980;2022-09-29T12:47:59;23.10;81.20
17607;DHT22;8922;52.240;20.980;2022-09-29T12:50:29;22.20;77.30
17607;DHT22;8922;52.240;20.980;2022-09-29T12:53:02;21.00;78.00
17607;DHT22;8922;52.240;20.980;2022-09-29T12:55:43;19.90;80.00
17607;DHT22;8922;52.240;20.980;2022-09-29T12:58:17;19.00;83.10
17607;DHT22;8922;52.240;20.980;2022-09-29T13:00:50;18.30;85.50
17607;DHT22;8922;52.240;20.980;2022-09-29T13:03:36;17.60;87.50
17607;DHT22;8922;52.240;20.980;2022-09-29T13:06:27;16.90;90.20
17607;DHT22;8922;52.240;20.980;2022-09-29T13:09:19;16.40;91.50
17607;DHT22;8922;52.240;20.980;2022-09-29T13:12:00;16.10;92.70
17607;DHT22;8922;52.240;20.980;2022-09-29T13:14:51;15.80;93.70
17607;DHT22;8922;52.240;20.980;2022-09-29T13:17:34;15.60;94.80
17607;DHT22;8922;52.240;20.980;2022-09-29T13:20:32;15.40;95.50
17607;DHT22;8922;52.240;20.980;2022-09-29T13:26:30;15.00;96.80
17607;DHT22;8922;52.240;20.980;2022-09-29T13:29:02;14.70;97.90
17607;DHT22;8922;52.240;20.980;2022-09-29T13:31:36;14.50;98.50
17607;DHT22;8922;52.240;20.980;2022-09-29T13:34:06;14.30;99.30
17607;DHT22;8922;52.240;20.980;2022-09-29T13:36:43;14.20;99.80
17607;DHT22;8922;52.240;20.980;2022-09-29T13:39:20;14.10;99.90
17607;DHT22;8922;52.240;20.980;2022-09-29T13:41:47;14.10;99.90
17607;DHT22;8922;52.240;20.980;2022-09-29T13:44:25;13.90;99.90
17607;DHT22;8922;52.240;20.980;2022-09-29T13:46:53;13.90;99.90
17607;DHT22;8922;52.240;20.980;2022-09-29T13:49:29;13.80;99.90
17607;DHT22;8922;52.240;20.980;2022-09-29T13:51:58;13.80;99.90
17607;DHT22;8922;52.240;20.980;2022-09-29T13:54:32;13.70;99.90
17607;DHT22;8922;52.240;20.980;2022-09-29T14:00:24;13.70;99.90
17607;DHT22;8922;52.240;20.980;2022-09-29T14:03:05;13.60;99.90
17607;DHT22;8922;52.240;20.980;2022-09-29T14:08:26;13.60;99.90
17607;DHT22;8922;52.240;20.980;2022-09-29T14:11:11;13.60;99.90
17607;DHT22;8922;52.240;20.980;2022-09-29T14:13:43;13.60;99.90
17607;DHT22;8922;52.240;20.980;2022-09-29T14:16:31;13.60;99.90
17607;DHT22;8922;52.240;20.980;2022-09-29T14:19:03;13.80;99.90
17607;DHT22;8922;52.240;20.980;2022-09-29T14:21:50;13.90;99.90
17607;DHT22;8922;52.240;20.980;2022-09-29T14:24:43;13.90;99.90
17607;DHT22;8922;52.240;20.980;2022-09-29T14:27:28;13.80;99.90
17607;DHT22;8922;52.240;20.980;2022-09-29T14:30:12;13.80;99.90
17607;DHT22;8922;52.240;20.980;2022-09-29T14:32:45;13.60;99.90
17607;DHT22;8922;52.240;20.980;2022-09-29T14:35:19;13.60;99.90
17607;DHT22;8922;52.240;20.980;2022-09-29T14:37:58;13.40;99.90
17607;DHT22;8922;52.240;20.980;2022-09-29T14:40:25;13.30;99.90
17607;DHT22;8922;52.240;20.980;2022-09-29T14:43:10;13.30;99.90
17607;DHT22;8922;52.240;20.980;2022-09-29T14:45:48;13.30;99.90
17607;DHT22;8922;52.240;20.980;2022-09-29T14:48:40;13.20;99.90
17607;DHT22;8922;52.240;20.980;2022-09-29T14:51:30;13.30;99.90
17607;DHT22;8922;52.240;20.980;2022-09-29T14:54:25;13.40;99.90
17607;DHT22;8922;52.240;20.980;2022-09-29T14:57:00;13.60;99.90
17607;DHT22;8922;52.240;20.980;2022-09-29T14:59:42;13.70;99.90
17607;DHT22;8922;52.240;20.980;2022-09-29T15:02:21;13.90;99.90
17607;DHT22;8922;52.240;20.980;2022-09-29T15:05:13;13.90;99.90
17607;DHT22;8922;52.240;20.980;2022-09-29T15:07:43;13.90;99.90
17607;DHT22;8922;52.240;20.980;2022-09-29T15:10:39;14.00;99.90
17607;DHT22;8922;52.240;20.980;2022-09-29T15:13:16;14.00;99.90
17607;DHT22;8922;52.240;20.980;2022-09-29T15:15:47;14.10;99.90
17607;DHT22;8922;52.240;20.980;2022-09-29T15:18:26;14.10;99.90
17607;DHT22;8922;52.240;20.980;2022-09-29T15:20:58;14.20;99.90
17607;DHT22;8922;52.240;20.980;2022-09-29T15:26:26;14.20;99.90
17607;DHT22;8922;52.240;20.980;2022-09-29T15:28:56;14.10;99.90
17607;DHT22;8922;52.240;20.980;2022-09-29T15:31:26;14.00;99.90
17607;DHT22;8922;52.240;20.980;2022-09-29T15:33:55;14.00;99.90
17607;DHT22;8922;52.240;20.980;2022-09-29T15:36:23;14.00;99.90
17607;DHT22;8922;52.240;20.980;2022-09-29T15:38:52;13.90;99.90
17607;DHT22;8922;52.240;20.980;2022-09-29T15:41:21;13.80;99.90
17607;DHT22;8922;52.240;20.980;2022-09-29T15:43:55;13.70;99.90
17607;DHT22;8922;52.240;20.980;2022-09-29T15:46:24;13.50;99.90
17607;DHT22;8922;52.240;20.980;2022-09-29T15:49:11;13.40;99.90
17607;DHT22;8922;52.240;20.980;2022-09-29T15:51:39;13.30;99.90
17607;DHT22;8922;52.240;20.980;2022-09-29T15:54:10;13.10;99.90
17607;DHT22;8922;52.240;20.980;2022-09-29T15:56:38;13.00;99.90
17607;DHT22;8922;52.240;20.980;2022-09-29T15:59:20;12.90;99.90
17607;DHT22;8922;52.240;20.980;2022-09-29T16:02:04;12.80;99.90
17607;DHT22;8922;52.240;20.980;2022-09-29T16:04:33;12.70;99.90
17607;DHT22;8922;52.240;20.980;2022-09-29T16:07:00;12.70;99.90
17607;DHT22;8922;52.240;20.980;2022-09-29T16:09:27;12.60;99.90
17607;DHT22;8922;52.240;20.980;2022-09-29T16:11:54;12.40;99.90
17607;DHT22;8922;52.240;20.980;2022-09-29T16:14:24;12.40;99.90
17607;DHT22;8922;52.240;20.980;2022-09-29T16:16:53;12.30;99.90
17607;DHT22;8922;52.240;20.980;2022-09-29T16:19:23;12.20;99.90
17607;DHT22;8922;52.240;20.980;2022-09-29T16:21:53;12.10;99.90
17607;DHT22;8922;52.240;20.980;2022-09-29T16:24:27;12.00;99.90
17607;DHT22;8922;52.240;20.980;2022-09-29T16:26:57;12.00;99.90